Pella, IA

6:54 PM CDT on July 06, 2015 (GMT -0500)
IADOT | | Change Station
CLOSE
Current Station
Personal Weather Station
Location: Pella, IA
Elevation: 889 ft
Nearby Weather Stations

Elev 889 ft 41.39 °N, 92.87 °W | Updated 23 minutes ago

Mostly Cloudy
Mostly Cloudy
74.0 °F
Feels Like 73 °F
N
4.0
Wind Variable Wind from NNW
Gusts 10.0 mph

Today
High -- | Low -- °F
--% Chance of Precip.
Yesterday
High -- | Low -- °F
Precip. -- in
5:44 AM 8:47 PM
Waning Gibbous, 71% visible
Pressure 29.88 in
Visibility 7.0 miles
Clouds Scattered Clouds 700 ft
Scattered Clouds 1400 ft
Mostly Cloudy 6000 ft
Heat Index 73 °F
Dew Point 70.0 °F
Humidity 87%
Rainfall in
Snow Depth Not available.
UV 1 out of 12
Pollen 1.30 out of 12
Air Quality Not available.
Flu Activity Not available.
METAR KPEA 062335Z AUTO 33011G14KT 7SM SCT007 SCT014 BKN060 23/22 A2988 RMK AO2 T02260222

More Conditions Fewer Conditions

Pressure 29.88 in
Visibility 7.0 miles
Clouds Scattered Clouds 700 ft
Scattered Clouds 1400 ft
Mostly Cloudy 6000 ft
Heat Index 73 °F
Dew Point 70.0 °F
Humidity 87%
Rainfall in
Snow Depth Not available.
UV 1 out of 12
Pollen 1.30 out of 12
Air Quality Not available.
Flu Activity Not available.
METAR KPEA 062335Z AUTO 33011G14KT 7SM SCT007 SCT014 BKN060 23/22 A2988 RMK AO2 T02260222

More Conditions Fewer Conditions

10-Day Weather Forecast

×

Almanac

Astronomy

Jul. 06, 2015 Rise Set
Actual Time
Civil Twilight
Nautical Twilight
Astronomical Twilight
Moon
Length of Visible Light
Length of Day
Tomorrow will be .
, % of the Moon is Illuminated

Today's Extremes

State Highs State Lows

Community

WunderPhotos

Upload Photos

1,835,688 photos uploaded!

WunderBlogs® & News

Nearby

Air Quality

  Air Quality AQ Index Pollutant
Not available.

Snow Depth

Station Depth Elevation

Earthquake Activity

City Distance Mag. Time & Date
Minimum magnitude displayed is 2.5.

Coastal Water Temperatures

Place Temperature

Stations

Nearby Weather Stations

Station Location Temp. Windchill Dew Point Humidity Wind Precip. Elev Updated Type